createdAt,value
2023-05-14T00:00:47.928Z,98361.38
2023-05-14T00:03:15.251Z,98356.75
2023-05-14T00:05:42.430Z,98354.22
2023-05-14T00:08:09.487Z,98358.03
2023-05-14T00:10:36.567Z,98347.06
2023-05-14T00:13:03.625Z,98341.56
2023-05-14T00:15:32.278Z,98346.06
2023-05-14T00:18:00.733Z,98338.38
2023-05-14T00:20:27.807Z,98345.94
2023-05-14T00:22:54.887Z,98343.00
2023-05-14T00:25:21.975Z,98343.19
2023-05-14T00:27:49.017Z,98345.94
2023-05-14T00:30:16.137Z,98345.94
2023-05-14T00:32:43.291Z,98339.50
2023-05-14T00:35:10.358Z,98342.78
2023-05-14T00:37:37.831Z,98344.03
2023-05-14T00:40:08.730Z,98342.78
2023-05-14T00:42:35.791Z,98329.59
2023-05-14T00:45:02.939Z,98327.81
2023-05-14T00:47:30.056Z,98334.56
2023-05-14T00:49:57.442Z,98327.00
2023-05-14T00:52:24.500Z,98323.41
2023-05-14T00:54:52.462Z,98320.16
2023-05-14T00:57:19.670Z,98317.16
2023-05-14T00:59:47.090Z,98318.88
2023-05-14T01:02:14.506Z,98318.34
2023-05-14T01:04:42.141Z,98323.41
2023-05-14T01:07:31.228Z,98315.91
2023-05-14T01:10:06.615Z,98315.16
2023-05-14T01:12:38.077Z,98315.28
2023-05-14T01:15:11.024Z,98314.53
2023-05-14T01:18:11.314Z,98316.00
2023-05-14T01:20:38.790Z,98318.97
2023-05-14T01:23:06.007Z,98311.81
2023-05-14T01:25:33.750Z,98319.78
2023-05-14T01:28:13.200Z,98320.53
2023-05-14T01:31:03.894Z,98317.38
2023-05-14T01:33:33.634Z,98315.16
2023-05-14T01:36:00.824Z,98313.88
2023-05-14T01:38:31.664Z,98319.16
2023-05-14T01:40:59.367Z,98313.69
2023-05-14T01:43:27.158Z,98319.38
2023-05-14T01:45:55.886Z,98312.41
2023-05-14T01:48:23.212Z,98308.19
2023-05-14T01:50:50.703Z,98313.75
2023-05-14T01:53:17.748Z,98311.75
2023-05-14T01:55:44.810Z,98312.06
2023-05-14T01:58:12.370Z,98314.88
2023-05-14T02:00:39.416Z,98303.19
2023-05-14T02:03:09.218Z,98304.53
2023-05-14T02:05:36.460Z,98303.25
2023-05-14T02:08:03.655Z,98305.25
2023-05-14T02:10:30.813Z,98301.56
2023-05-14T02:12:58.056Z,98302.84
2023-05-14T02:15:25.621Z,98304.06
2023-05-14T02:17:52.905Z,98299.84
2023-05-14T02:20:20.219Z,98306.53
2023-05-14T02:22:47.567Z,98293.25
2023-05-14T02:25:14.761Z,98304.13
2023-05-14T02:27:41.845Z,98298.88
2023-05-14T02:30:10.468Z,98295.38
2023-05-14T02:32:38.154Z,98300.97
2023-05-14T02:35:06.221Z,98290.75
2023-05-14T02:37:34.882Z,98300.22
2023-05-14T02:40:01.975Z,98298.44
2023-05-14T02:42:29.304Z,98295.25
2023-05-14T02:44:56.544Z,98288.91
2023-05-14T02:47:23.830Z,98292.91
2023-05-14T02:49:51.591Z,98289.13
2023-05-14T02:52:18.666Z,98289.88
2023-05-14T02:54:46.016Z,98281.41
2023-05-14T02:57:13.589Z,98277.44
2023-05-14T02:59:40.640Z,98279.41
2023-05-14T03:02:08.125Z,98277.00
2023-05-14T03:04:35.573Z,98269.28
2023-05-14T03:07:02.642Z,98274.78
2023-05-14T03:09:29.809Z,98273.81
2023-05-14T03:11:56.963Z,98271.38
2023-05-14T03:14:24.016Z,98268.94
2023-05-14T03:16:51.129Z,98270.22
2023-05-14T03:19:18.194Z,98265.88
2023-05-14T03:21:45.662Z,98269.38
2023-05-14T03:24:12.741Z,98268.09
2023-05-14T03:26:39.908Z,98266.94
2023-05-14T03:29:07.019Z,98261.47
2023-05-14T03:31:34.315Z,98254.50
2023-05-14T03:34:01.477Z,98251.25
2023-05-14T03:36:28.594Z,98249.75
2023-05-14T03:38:55.683Z,98251.97
2023-05-14T03:41:23.030Z,98253.53
2023-05-14T03:43:50.080Z,98262.63
2023-05-14T03:46:17.213Z,98261.81
2023-05-14T03:48:44.639Z,98264.47
2023-05-14T03:51:11.721Z,98270.16
2023-05-14T03:53:38.796Z,98263.19
2023-05-14T03:56:05.915Z,98264.16
2023-05-14T03:58:32.991Z,98266.88
2023-05-14T04:01:00.564Z,98264.69
2023-05-14T04:03:27.798Z,98262.16
2023-05-14T04:05:55.059Z,98258.66
2023-05-14T04:08:22.128Z,98259.41
2023-05-14T04:10:50.003Z,98261.41
2023-05-14T04:13:17.134Z,98252.44
2023-05-14T04:15:44.212Z,98260.88
2023-05-14T04:18:11.511Z,98248.66
2023-05-14T04:20:38.705Z,98259.13
2023-05-14T04:23:05.746Z,98262.16
2023-05-14T04:25:32.809Z,98249.19
2023-05-14T04:27:59.870Z,98261.41
2023-05-14T04:30:26.972Z,98258.34
2023-05-14T04:32:54.197Z,98251.41
2023-05-14T04:35:24.116Z,98251.75
2023-05-14T04:37:52.091Z,98251.66
2023-05-14T04:40:19.281Z,98250.16
2023-05-14T04:42:46.304Z,98245.75
2023-05-14T04:45:13.604Z,98253.31
2023-05-14T04:47:41.643Z,98253.09
2023-05-14T04:50:09.726Z,98243.91
2023-05-14T04:52:36.829Z,98247.63
2023-05-14T04:55:04.023Z,98250.25
2023-05-14T04:57:31.077Z,98247.00
2023-05-14T04:59:58.169Z,98237.72
2023-05-14T05:02:25.527Z,98247.47
2023-05-14T05:04:52.585Z,98246.72
2023-05-14T05:07:19.632Z,98244.53
2023-05-14T05:09:46.766Z,98243.69
2023-05-14T05:12:13.829Z,98237.56
2023-05-14T05:14:40.905Z,98238.19
2023-05-14T05:17:08.352Z,98241.72
2023-05-14T05:19:43.027Z,98240.28
2023-05-14T05:22:11.736Z,98239.16
2023-05-14T05:24:38.865Z,98237.78
2023-05-14T05:27:06.171Z,98242.00
2023-05-14T05:29:33.252Z,98232.81
2023-05-14T05:32:00.490Z,98229.53
2023-05-14T05:34:27.765Z,98230.88
2023-05-14T05:36:54.823Z,98236.16
2023-05-14T05:39:21.997Z,98235.75
2023-05-14T05:41:49.353Z,98225.53
2023-05-14T05:44:16.413Z,98230.53
2023-05-14T05:46:43.556Z,98224.09
2023-05-14T05:49:10.625Z,98227.06
2023-05-14T05:51:37.746Z,98221.19
2023-05-14T05:54:04.805Z,98219.22
2023-05-14T05:56:31.954Z,98217.41
2023-05-14T05:58:59.035Z,98229.84
2023-05-14T06:01:26.701Z,98227.28
2023-05-14T06:03:53.814Z,98218.53
2023-05-14T06:06:21.722Z,98219.88
2023-05-14T06:08:48.991Z,98216.78
2023-05-14T06:11:16.870Z,98222.34
2023-05-14T06:13:44.149Z,98220.38
2023-05-14T06:16:11.264Z,98229.41
2023-05-14T06:18:38.475Z,98220.44
2023-05-14T06:21:05.710Z,98222.31
2023-05-14T06:23:33.332Z,98221.09
2023-05-14T06:26:00.568Z,98214.88
2023-05-14T06:28:27.673Z,98213.59
2023-05-14T06:30:54.779Z,98217.06
2023-05-14T06:33:29.646Z,98215.94
2023-05-14T06:36:00.972Z,98211.00
2023-05-14T06:38:28.057Z,98211.59
2023-05-14T06:40:55.223Z,98215.69
2023-05-14T06:43:22.272Z,98212.41
2023-05-14T06:45:50.483Z,98209.69
2023-05-14T06:48:21.104Z,98211.72
2023-05-14T06:50:49.173Z,98215.75
2023-05-14T06:53:16.454Z,98214.28
2023-05-14T06:55:43.572Z,98203.25
2023-05-14T06:58:10.997Z,98212.81
2023-05-14T07:00:38.057Z,98210.41
2023-05-14T07:03:05.180Z,98206.91
2023-05-14T07:05:32.531Z,98198.78
2023-05-14T07:07:59.817Z,98195.41
2023-05-14T07:10:27.185Z,98191.69
2023-05-14T07:12:54.358Z,98183.47
2023-05-14T07:15:21.526Z,98190.72
2023-05-14T07:17:49.007Z,98189.88
2023-05-14T07:20:16.129Z,98189.06
2023-05-14T07:22:43.216Z,98180.44
2023-05-14T07:25:10.287Z,98181.59
2023-05-14T07:27:37.398Z,98183.50
2023-05-14T07:30:04.675Z,98179.03
2023-05-14T07:32:31.778Z,98179.13
2023-05-14T07:34:58.994Z,98177.88
2023-05-14T07:37:26.121Z,98171.41
2023-05-14T07:39:53.723Z,98174.50
2023-05-14T07:42:34.499Z,98167.97
2023-05-14T07:45:04.136Z,98164.63
2023-05-14T07:47:31.611Z,98172.38
2023-05-14T07:49:58.998Z,98172.53
2023-05-14T07:52:26.134Z,98165.03
2023-05-14T07:54:53.416Z,98167.69
2023-05-14T07:57:20.536Z,98172.13
2023-05-14T07:59:48.201Z,98166.19
2023-05-14T08:02:16.806Z,98177.75
2023-05-14T08:04:44.900Z,98170.75
2023-05-14T08:07:12.096Z,98171.72
2023-05-14T08:09:39.242Z,98173.66
2023-05-14T08:12:06.758Z,98176.06
2023-05-14T08:14:33.960Z,98166.28
2023-05-14T08:17:01.045Z,98166.44
2023-05-14T08:19:28.491Z,98176.13
2023-05-14T08:21:55.574Z,98167.56
2023-05-14T08:24:22.634Z,98159.53
2023-05-14T08:26:49.757Z,98172.38
2023-05-14T08:29:16.979Z,98169.88
2023-05-14T08:31:44.197Z,98171.03
2023-05-14T08:34:11.275Z,98161.63
2023-05-14T08:36:41.480Z,98155.31
2023-05-14T08:39:08.664Z,98151.47
2023-05-14T08:41:36.349Z,98152.59
2023-05-14T08:44:10.760Z,98140.38
2023-05-14T08:46:38.868Z,98144.66
2023-05-14T08:49:18.496Z,98132.94
2023-05-14T08:51:48.402Z,98135.69
2023-05-14T08:54:18.754Z,98143.50
2023-05-14T08:56:46.461Z,98132.63
2023-05-14T08:59:13.576Z,98134.81
2023-05-14T09:01:47.680Z,98138.03
2023-05-14T09:04:21.150Z,98124.97
2023-05-14T09:06:53.486Z,98134.06
2023-05-14T09:09:23.762Z,98145.50
2023-05-14T09:11:52.043Z,98126.44
2023-05-14T09:14:20.088Z,98119.63
2023-05-14T09:16:49.326Z,98133.91
2023-05-14T09:19:19.036Z,98122.22
2023-05-14T09:21:47.747Z,98131.75
2023-05-14T09:24:22.296Z,98126.50
2023-05-14T09:26:53.718Z,98123.69
2023-05-14T09:29:20.853Z,98125.38
2023-05-14T09:31:50.675Z,98116.06
2023-05-14T09:34:28.946Z,98131.16
2023-05-14T09:37:01.282Z,98134.63
2023-05-14T09:39:29.276Z,98128.19
2023-05-14T09:41:56.705Z,98133.38
2023-05-14T09:44:24.645Z,98112.75
2023-05-14T09:46:52.540Z,98117.56
2023-05-14T09:49:20.148Z,98097.78
2023-05-14T09:51:48.609Z,98101.94
2023-05-14T09:54:15.920Z,98101.09
2023-05-14T09:56:43.529Z,98091.41
2023-05-14T09:59:10.905Z,98092.53
2023-05-14T10:01:38.389Z,98090.53
2023-05-14T10:04:07.541Z,98084.34
2023-05-14T10:06:38.343Z,98079.91
2023-05-14T10:09:12.046Z,98075.09
2023-05-14T10:11:43.014Z,98068.91
2023-05-14T10:14:39.005Z,98082.28
2023-05-14T10:17:06.517Z,98065.75
2023-05-14T10:19:35.356Z,98074.41
2023-05-14T10:22:07.642Z,98072.97
2023-05-14T10:24:34.959Z,98071.63
2023-05-14T10:27:02.283Z,98074.78
2023-05-14T10:29:34.567Z,98071.16
2023-05-14T10:32:06.552Z,98062.47
2023-05-14T10:34:38.684Z,98065.75
2023-05-14T10:37:08.306Z,98059.91
2023-05-14T10:39:41.363Z,98055.66
2023-05-14T10:42:10.677Z,98051.91
2023-05-14T10:44:42.901Z,98047.81
2023-05-14T10:47:09.982Z,98044.25
2023-05-14T10:49:43.407Z,98046.91
2023-05-14T10:52:12.249Z,98041.66
2023-05-14T10:54:39.574Z,98037.75
2023-05-14T10:57:11.421Z,98031.00
2023-05-14T10:59:42.009Z,98030.75
2023-05-14T11:02:28.615Z,98027.28
2023-05-14T11:04:58.134Z,98019.31
2023-05-14T11:07:28.618Z,98027.34
2023-05-14T11:10:00.640Z,98019.63
2023-05-14T11:12:27.975Z,98021.53
2023-05-14T11:14:58.081Z,98019.50
2023-05-14T11:17:26.729Z,98015.38
2023-05-14T11:19:54.494Z,98004.28
2023-05-14T11:22:21.981Z,98017.88
2023-05-14T11:24:49.101Z,98015.03
2023-05-14T11:27:17.270Z,98006.31
2023-05-14T11:29:46.125Z,98000.03
2023-05-14T11:32:14.091Z,98005.38
2023-05-14T11:34:42.132Z,98004.81
2023-05-14T11:37:10.220Z,97989.97
2023-05-14T11:39:40.267Z,97995.13
2023-05-14T11:42:12.276Z,97982.03
2023-05-14T11:44:39.586Z,97986.69
2023-05-14T11:47:06.965Z,97978.97
2023-05-14T11:49:37.650Z,97987.88
2023-05-14T11:52:06.381Z,97986.19
2023-05-14T11:54:34.095Z,97985.03
2023-05-14T11:57:04.530Z,97978.00
2023-05-14T11:59:32.551Z,97972.75
2023-05-14T12:01:59.658Z,97980.06
2023-05-14T12:04:26.844Z,97970.09
2023-05-14T12:06:54.007Z,97972.31
2023-05-14T12:09:21.980Z,97976.53
2023-05-14T12:11:50.701Z,97968.06
2023-05-14T12:14:24.599Z,97962.81
2023-05-14T12:16:51.920Z,97962.31
2023-05-14T12:19:20.399Z,97965.28
2023-05-14T12:21:48.912Z,97968.78
2023-05-14T12:24:18.278Z,97958.22
2023-05-14T12:26:47.138Z,97953.13
2023-05-14T12:29:15.412Z,97950.06
2023-05-14T12:31:47.310Z,97959.84
2023-05-14T12:34:14.862Z,97942.31
2023-05-14T12:36:42.887Z,97951.81
2023-05-14T12:39:10.711Z,97936.34
2023-05-14T12:41:37.796Z,97936.63
2023-05-14T12:44:05.085Z,97940.47
2023-05-14T12:46:32.873Z,97936.38
2023-05-14T12:49:00.244Z,97931.13
2023-05-14T12:51:27.295Z,97945.00
2023-05-14T12:53:54.377Z,97940.91
2023-05-14T12:56:21.964Z,97941.66
2023-05-14T12:58:49.101Z,97936.19
2023-05-14T13:01:16.502Z,97935.63
2023-05-14T13:03:43.672Z,97931.06
2023-05-14T13:06:10.998Z,97929.16
2023-05-14T13:08:38.167Z,97932.03
2023-05-14T13:11:05.304Z,97929.53
2023-05-14T13:13:32.368Z,97931.16
2023-05-14T13:15:59.572Z,97922.53
2023-05-14T13:18:26.898Z,97929.81
2023-05-14T13:20:54.096Z,97928.22
2023-05-14T13:23:21.161Z,97928.06
2023-05-14T13:25:50.029Z,97928.06
2023-05-14T13:28:17.241Z,97924.81
2023-05-14T13:31:04.312Z,97925.69
2023-05-14T13:33:31.410Z,97925.53
2023-05-14T13:35:58.474Z,97917.34
2023-05-14T13:38:25.487Z,97922.44
2023-05-14T13:40:52.512Z,97917.22
2023-05-14T13:43:19.687Z,97917.81
2023-05-14T13:45:46.804Z,97923.59
2023-05-14T13:48:14.063Z,97913.34
2023-05-14T13:50:41.221Z,97912.13
2023-05-14T13:53:08.306Z,97906.19
2023-05-14T13:55:35.398Z,97908.81
2023-05-14T13:58:02.595Z,97900.63
2023-05-14T14:00:29.644Z,97895.19
2023-05-14T14:02:56.843Z,97896.06
2023-05-14T14:05:28.247Z,97899.00
2023-05-14T14:08:01.143Z,97895.09
2023-05-14T14:10:36.496Z,97894.91
2023-05-14T14:13:03.584Z,97892.88
2023-05-14T14:15:30.686Z,97884.88
2023-05-14T14:17:57.845Z,97893.06
2023-05-14T14:20:24.905Z,97892.56
2023-05-14T14:22:51.964Z,97891.84
2023-05-14T14:25:19.060Z,97890.41
2023-05-14T14:27:47.474Z,97885.78
2023-05-14T14:30:16.502Z,97884.88
2023-05-14T14:32:47.837Z,97876.28
2023-05-14T14:35:16.471Z,97878.72
2023-05-14T14:37:46.018Z,97874.94
2023-05-14T14:40:13.111Z,97878.69
2023-05-14T14:42:40.202Z,97873.84
2023-05-14T14:45:07.776Z,97876.31
2023-05-14T14:47:36.259Z,97882.38
2023-05-14T14:50:03.456Z,97881.81
2023-05-14T14:52:30.575Z,97880.03
2023-05-14T14:54:57.806Z,97884.84
2023-05-14T14:57:25.045Z,97876.88
2023-05-14T14:59:52.113Z,97881.56
2023-05-14T15:02:19.928Z,97873.13
2023-05-14T15:04:47.037Z,97880.84
2023-05-14T15:07:16.543Z,97878.56
2023-05-14T15:09:46.236Z,97891.56
2023-05-14T15:12:14.255Z,97887.97
2023-05-14T15:14:41.430Z,97887.31
2023-05-14T15:17:08.754Z,97882.00
2023-05-14T15:19:36.008Z,97880.03
2023-05-14T15:22:03.041Z,97873.03
2023-05-14T15:24:30.173Z,97883.53
2023-05-14T15:26:57.214Z,97878.78
2023-05-14T15:29:24.497Z,97872.72
2023-05-14T15:31:51.648Z,97879.53
2023-05-14T15:34:18.705Z,97880.63
2023-05-14T15:36:45.825Z,97879.16
2023-05-14T15:39:12.886Z,97875.88
2023-05-14T15:41:40.010Z,97875.88
2023-05-14T15:44:07.288Z,97882.47
2023-05-14T15:46:34.443Z,97879.72
2023-05-14T15:49:01.625Z,97886.91
2023-05-14T15:51:28.839Z,97895.72
2023-05-14T15:53:55.942Z,97900.09
2023-05-14T15:56:23.702Z,97894.78
2023-05-14T15:58:50.813Z,97894.94
2023-05-14T16:01:18.948Z,97893.69
2023-05-14T16:03:46.188Z,97894.22
2023-05-14T16:06:13.362Z,97898.63
2023-05-14T16:08:41.408Z,97898.09
2023-05-14T16:11:08.563Z,97892.56
2023-05-14T16:13:37.763Z,97890.94
2023-05-14T16:16:05.401Z,97888.91
2023-05-14T16:18:33.389Z,97896.44
2023-05-14T16:21:00.805Z,97894.41
2023-05-14T16:23:27.961Z,97898.25
2023-05-14T16:25:55.078Z,97899.72
2023-05-14T16:28:22.208Z,97884.50
2023-05-14T16:30:49.302Z,97894.78
2023-05-14T16:33:16.396Z,97890.94
2023-05-14T16:35:43.670Z,97880.66
2023-05-14T16:38:10.965Z,97885.97
2023-05-14T16:40:37.982Z,97885.97
2023-05-14T16:43:05.133Z,97878.09
2023-05-14T16:45:34.243Z,97879.38
2023-05-14T16:48:01.469Z,97879.38
2023-05-14T16:50:28.765Z,97879.00
2023-05-14T16:52:55.836Z,97865.06
2023-05-14T16:55:23.233Z,97872.22
2023-05-14T16:57:50.598Z,97857.19
2023-05-14T17:00:18.233Z,97858.81
2023-05-14T17:02:48.941Z,97859.00
2023-05-14T17:05:16.268Z,97861.75
2023-05-14T17:07:43.361Z,97857.91
2023-05-14T17:10:10.596Z,97856.78
2023-05-14T17:12:37.761Z,97867.81
2023-05-14T17:15:08.184Z,97865.22
2023-05-14T17:17:35.432Z,97864.50
2023-05-14T17:20:03.294Z,97867.47
2023-05-14T17:22:30.533Z,97863.59
2023-05-14T17:24:57.674Z,97865.97
2023-05-14T17:27:24.790Z,97864.88
2023-05-14T17:29:52.490Z,97863.75
2023-05-14T17:32:19.687Z,97867.44
2023-05-14T17:34:46.764Z,97866.16
2023-05-14T17:37:13.978Z,97863.59
2023-05-14T17:39:41.061Z,97864.88
2023-05-14T17:42:09.066Z,97863.41
2023-05-14T17:44:37.066Z,97846.91
2023-05-14T17:47:04.648Z,97851.09
2023-05-14T17:49:31.866Z,97854.41
2023-05-14T17:51:59.004Z,97841.56
2023-05-14T17:54:26.070Z,97845.44
2023-05-14T17:56:53.797Z,97856.25
2023-05-14T17:59:22.515Z,97856.81
2023-05-14T18:01:51.247Z,97851.13
2023-05-14T18:04:18.343Z,97855.91
2023-05-14T18:06:46.942Z,97852.22
2023-05-14T18:09:14.141Z,97847.09
2023-05-14T18:11:41.468Z,97848.38
2023-05-14T18:14:08.610Z,97846.91
2023-05-14T18:16:36.956Z,97852.22
2023-05-14T18:19:04.516Z,97848.75
2023-05-14T18:21:31.585Z,97855.53
2023-05-14T18:23:58.673Z,97849.28
2023-05-14T18:26:26.594Z,97848.53
2023-05-14T18:28:53.641Z,97844.88
2023-05-14T18:31:20.849Z,97855.72
2023-05-14T18:33:48.040Z,97855.53
2023-05-14T18:36:15.124Z,97847.28
2023-05-14T18:38:42.244Z,97849.47
2023-05-14T18:41:09.273Z,97848.75
2023-05-14T18:43:36.304Z,97857.53
2023-05-14T18:46:03.442Z,97852.38
2023-05-14T18:48:31.139Z,97857.88
2023-05-14T18:50:58.188Z,97857.31
2023-05-14T18:53:25.564Z,97856.97
2023-05-14T18:55:52.602Z,97847.25
2023-05-14T18:58:19.692Z,97846.66
2023-05-14T19:00:46.759Z,97857.09
2023-05-14T19:03:14.120Z,97862.41
2023-05-14T19:05:41.270Z,97863.13
2023-05-14T19:08:08.343Z,97865.47
2023-05-14T19:10:35.428Z,97868.38
2023-05-14T19:13:02.916Z,97867.63
2023-05-14T19:15:30.098Z,97870.50
2023-05-14T19:17:57.196Z,97868.28
2023-05-14T19:20:24.262Z,97862.06
2023-05-14T19:22:51.360Z,97861.00
2023-05-14T19:25:18.412Z,97865.00
2023-05-14T19:27:45.639Z,97863.72
2023-05-14T19:30:13.384Z,97865.00
2023-05-14T19:32:40.617Z,97864.63
2023-05-14T19:35:08.026Z,97864.63
2023-05-14T19:37:35.250Z,97865.91
2023-05-14T19:40:02.330Z,97865.31
2023-05-14T19:42:29.477Z,97870.81
2023-05-14T19:44:56.524Z,97863.25
2023-05-14T19:47:23.593Z,97865.09
2023-05-14T19:49:50.723Z,97855.56
2023-05-14T19:52:17.843Z,97851.53
2023-05-14T19:54:44.876Z,97849.91
2023-05-14T19:57:12.001Z,97847.69
2023-05-14T19:59:39.322Z,97851.69
2023-05-14T20:02:06.361Z,97855.19
2023-05-14T20:04:33.461Z,97858.47
2023-05-14T20:07:01.255Z,97849.16
2023-05-14T20:09:28.326Z,97855.56
2023-05-14T20:11:55.363Z,97858.88
2023-05-14T20:14:22.491Z,97851.53
2023-05-14T20:16:49.679Z,97853.19
2023-05-14T20:19:16.912Z,97851.31
2023-05-14T20:21:44.061Z,97852.06
2023-05-14T20:24:11.101Z,97852.38
2023-05-14T20:26:38.185Z,97846.28
2023-05-14T20:29:05.315Z,97846.84
2023-05-14T20:31:32.345Z,97844.81
2023-05-14T20:33:59.367Z,97848.50
2023-05-14T20:36:26.474Z,97843.00
2023-05-14T20:38:53.591Z,97844.63
2023-05-14T20:41:20.904Z,97844.22
2023-05-14T20:43:47.953Z,97844.22
2023-05-14T20:46:15.023Z,97844.78
2023-05-14T20:48:42.133Z,97842.03
2023-05-14T20:51:09.246Z,97838.75
2023-05-14T20:53:38.938Z,97840.22
2023-05-14T20:56:06.544Z,97833.78
2023-05-14T20:58:33.664Z,97829.00
2023-05-14T21:01:00.815Z,97829.34
2023-05-14T21:03:28.110Z,97814.88
2023-05-14T21:05:56.817Z,97817.28
2023-05-14T21:08:23.847Z,97819.16
2023-05-14T21:10:50.892Z,97815.06
2023-05-14T21:13:18.198Z,97818.00
2023-05-14T21:15:45.324Z,97817.09
2023-05-14T21:18:12.966Z,97815.06
2023-05-14T21:20:40.739Z,97817.59
2023-05-14T21:23:07.800Z,97809.38
2023-05-14T21:25:34.830Z,97803.88
2023-05-14T21:28:01.922Z,97804.38
2023-05-14T21:30:29.019Z,97808.56
2023-05-14T21:32:56.200Z,97810.75
2023-05-14T21:35:23.527Z,97801.81
2023-05-14T21:37:51.276Z,97805.81
2023-05-14T21:40:18.305Z,97799.56
2023-05-14T21:42:45.343Z,97797.88
2023-05-14T21:45:12.479Z,97797.69
2023-05-14T21:47:39.579Z,97794.97
2023-05-14T21:50:07.179Z,97796.25
2023-05-14T21:52:34.257Z,97788.75
2023-05-14T21:55:01.293Z,97783.97
2023-05-14T21:57:29.258Z,97790.34
2023-05-14T21:59:58.826Z,97781.72
2023-05-14T22:02:26.875Z,97776.78
2023-05-14T22:04:53.958Z,97785.88
2023-05-14T22:07:21.279Z,97790.44
2023-05-14T22:09:49.338Z,97784.97
2023-05-14T22:12:17.174Z,97785.47
2023-05-14T22:14:44.232Z,97789.13
2023-05-14T22:17:12.606Z,97779.75
2023-05-14T22:19:39.643Z,97778.94
2023-05-14T22:22:06.725Z,97781.63
2023-05-14T22:24:33.764Z,97774.31
2023-05-14T22:27:00.841Z,97764.94
2023-05-14T22:29:27.908Z,97765.13
2023-05-14T22:31:55.010Z,97768.75
2023-05-14T22:34:22.231Z,97767.28
2023-05-14T22:36:49.293Z,97764.31
2023-05-14T22:39:16.359Z,97757.25
2023-05-14T22:41:43.451Z,97757.44
2023-05-14T22:44:10.526Z,97754.88
2023-05-14T22:46:37.608Z,97748.47
2023-05-14T22:49:04.695Z,97743.91
2023-05-14T22:51:31.757Z,97732.56
2023-05-14T22:53:58.781Z,97740.38
2023-05-14T22:56:25.807Z,97732.50
2023-05-14T22:58:52.960Z,97729.34
2023-05-14T23:01:20.009Z,97737.38
2023-05-14T23:03:47.086Z,97728.25
2023-05-14T23:06:14.745Z,97720.03
2023-05-14T23:08:42.125Z,97719.81
2023-05-14T23:11:09.161Z,97716.88
2023-05-14T23:13:36.541Z,97713.19
2023-05-14T23:16:03.781Z,97711.00
2023-05-14T23:18:30.967Z,97701.13
2023-05-14T23:20:58.241Z,97708.59
2023-05-14T23:23:25.637Z,97701.84
2023-05-14T23:25:53.912Z,97696.38
2023-05-14T23:28:20.994Z,97694.88
2023-05-14T23:30:48.064Z,97700.34
2023-05-14T23:33:15.155Z,97698.16
2023-05-14T23:35:42.520Z,97690.91
2023-05-14T23:38:09.580Z,97692.38
2023-05-14T23:40:37.034Z,97688.34
2023-05-14T23:43:04.145Z,97686.16
2023-05-14T23:45:31.341Z,97687.81
2023-05-14T23:47:58.790Z,97689.28
2023-05-14T23:50:26.006Z,97676.09
2023-05-14T23:52:53.901Z,97672.50
2023-05-14T23:55:21.018Z,97671.97
2023-05-14T23:57:48.812Z,97674.50
